createdAt,value
2019-05-17T00:01:51.214Z,17.37
2019-05-17T00:04:18.530Z,18.60
2019-05-17T00:06:47.707Z,18.05
2019-05-17T00:09:14.781Z,19.10
2019-05-17T00:11:42.086Z,18.98
2019-05-17T00:14:09.381Z,18.92
2019-05-17T00:16:37.532Z,17.75
2019-05-17T00:19:07.296Z,18.85
2019-05-17T00:21:33.868Z,18.95
2019-05-17T00:24:01.159Z,18.80
2019-05-17T00:26:28.493Z,17.80
2019-05-17T00:28:56.270Z,16.62
2019-05-17T00:31:23.581Z,17.90
2019-05-17T00:33:50.898Z,18.12
2019-05-17T00:36:18.245Z,18.90
2019-05-17T00:38:49.075Z,18.70
2019-05-17T00:41:14.476Z,17.23
2019-05-17T00:43:41.794Z,18.20
2019-05-17T00:46:09.149Z,16.82
2019-05-17T00:48:37.234Z,17.52
2019-05-17T00:51:08.554Z,17.37
2019-05-17T00:53:33.661Z,18.32
2019-05-17T00:56:00.970Z,17.42
2019-05-17T00:58:28.299Z,16.30
2019-05-17T01:00:57.130Z,17.20
2019-05-17T01:03:26.780Z,17.15
2019-05-17T01:05:53.455Z,18.12
2019-05-17T01:08:20.777Z,18.05
2019-05-17T01:10:48.096Z,17.80
2019-05-17T01:13:17.321Z,17.85
2019-05-17T01:15:44.366Z,18.32
2019-05-17T01:18:11.731Z,17.17
2019-05-17T01:20:39.050Z,16.65
2019-05-17T01:23:07.519Z,18.27
2019-05-17T01:25:36.728Z,16.80
2019-05-17T01:28:04.128Z,18.02
2019-05-17T01:30:31.519Z,17.45
2019-05-17T01:32:58.820Z,19.60
2019-05-17T01:35:26.650Z,18.62
2019-05-17T01:37:56.346Z,16.77
2019-05-17T01:40:23.103Z,18.10
2019-05-17T01:42:50.431Z,17.25
2019-05-17T01:45:17.721Z,16.50
2019-05-17T01:47:47.285Z,17.70
2019-05-17T01:50:13.988Z,19.37
2019-05-17T01:52:41.282Z,18.32
2019-05-17T01:55:08.575Z,18.82
2019-05-17T01:57:37.112Z,17.23
2019-05-17T02:00:06.521Z,17.30
2019-05-17T02:02:38.422Z,18.50
2019-05-17T02:05:06.706Z,16.05
2019-05-17T02:07:34.057Z,16.30
2019-05-17T02:10:01.460Z,19.75
2019-05-17T02:12:29.047Z,16.90
2019-05-17T02:14:57.531Z,17.30
2019-05-17T02:17:26.586Z,17.02
2019-05-17T02:19:53.844Z,15.80
2019-05-17T02:22:21.169Z,17.95
2019-05-17T02:24:48.485Z,17.10
2019-05-17T02:27:15.782Z,17.27
2019-05-17T02:29:43.108Z,15.83
2019-05-17T02:32:12.785Z,17.55
2019-05-17T02:34:42.802Z,17.62
2019-05-17T02:37:08.307Z,17.50
2019-05-17T02:39:52.573Z,17.55
2019-05-17T02:42:04.544Z,18.62
2019-05-17T02:44:33.560Z,15.63
2019-05-17T02:47:03.102Z,16.75
2019-05-17T02:49:32.833Z,17.00
2019-05-17T02:51:58.715Z,16.35
2019-05-17T02:54:26.011Z,16.82
2019-05-17T02:56:53.975Z,16.30
2019-05-17T02:59:23.197Z,16.67
2019-05-17T03:01:52.704Z,16.12
2019-05-17T03:04:19.198Z,15.78
2019-05-17T03:06:46.518Z,15.90
2019-05-17T03:09:14.200Z,16.15
2019-05-17T03:11:42.927Z,17.52
2019-05-17T03:14:12.745Z,15.68
2019-05-17T03:16:42.752Z,16.02
2019-05-17T03:19:13.125Z,17.10
2019-05-17T03:21:42.943Z,14.93
2019-05-17T03:24:13.725Z,15.28
2019-05-17T03:26:43.037Z,15.30
2019-05-17T03:29:13.367Z,15.95
2019-05-17T03:31:44.775Z,17.30
2019-05-17T03:34:08.032Z,15.90
2019-05-17T03:39:05.191Z,15.53
2019-05-17T03:41:34.109Z,16.67
2019-05-17T03:44:03.253Z,15.68
2019-05-17T03:46:33.177Z,16.48
2019-05-17T03:48:59.480Z,16.05
2019-05-17T03:51:26.761Z,18.20
2019-05-17T03:53:54.102Z,15.60
2019-05-17T03:56:22.405Z,14.73
2019-05-17T03:58:52.798Z,16.32
2019-05-17T04:01:18.754Z,15.10
2019-05-17T04:03:46.072Z,15.55
2019-05-17T04:06:13.585Z,16.32
2019-05-17T04:08:42.514Z,15.63
2019-05-17T04:11:22.536Z,14.80
2019-05-17T04:13:38.832Z,14.45
2019-05-17T04:16:08.884Z,14.47
2019-05-17T04:18:35.091Z,14.90
2019-05-17T04:21:03.433Z,14.25
2019-05-17T04:23:33.925Z,14.43
2019-05-17T04:26:03.763Z,14.45
2019-05-17T04:28:28.843Z,17.60
2019-05-17T04:30:56.168Z,16.32
2019-05-17T04:33:23.682Z,16.25
2019-05-17T04:35:53.803Z,16.90
2019-05-17T04:38:23.340Z,14.68
2019-05-17T04:40:48.887Z,21.30
2019-05-17T04:43:16.215Z,14.30
2019-05-17T04:45:43.536Z,13.72
2019-05-17T04:48:13.252Z,15.05
2019-05-17T04:50:42.727Z,13.60
2019-05-17T04:53:08.751Z,12.40
2019-05-17T04:55:36.052Z,13.68
2019-05-17T04:58:04.146Z,13.88
2019-05-17T05:00:34.105Z,14.03
2019-05-17T05:03:03.469Z,14.87
2019-05-17T05:05:29.464Z,14.03
2019-05-17T05:07:56.758Z,14.18
2019-05-17T05:10:24.050Z,12.78
2019-05-17T05:12:52.488Z,13.08
2019-05-17T05:15:22.584Z,12.58
2019-05-17T05:17:52.625Z,13.08
2019-05-17T05:20:18.843Z,13.62
2019-05-17T05:22:46.132Z,12.05
2019-05-17T05:25:13.454Z,13.32
2019-05-17T05:27:42.690Z,14.73
2019-05-17T05:30:11.876Z,11.57
2019-05-17T05:32:38.636Z,12.85
2019-05-17T05:35:06.830Z,14.80
2019-05-17T05:37:34.139Z,12.95
2019-05-17T05:40:02.082Z,13.13
2019-05-17T05:42:31.561Z,12.15
2019-05-17T05:44:58.464Z,12.45
2019-05-17T05:47:25.786Z,13.20
2019-05-17T05:49:53.089Z,72.67
2019-05-17T05:52:21.825Z,14.15
2019-05-17T05:54:49.289Z,10.98
2019-05-17T05:57:16.581Z,13.00
2019-05-17T05:59:43.899Z,13.18
2019-05-17T06:02:12.310Z,11.80
2019-05-17T06:04:39.724Z,12.30
2019-05-17T06:07:07.026Z,13.05
2019-05-17T06:09:34.339Z,11.75
2019-05-17T06:12:02.389Z,11.55
2019-05-17T06:14:32.187Z,14.30
2019-05-17T06:16:58.804Z,12.07
2019-05-17T06:19:26.094Z,12.95
2019-05-17T06:21:53.395Z,12.05
2019-05-17T06:24:22.564Z,12.25
2019-05-17T06:26:49.671Z,10.95
2019-05-17T06:29:16.966Z,12.25
2019-05-17T06:31:44.295Z,11.30
2019-05-17T06:34:11.721Z,12.28
2019-05-17T06:36:39.015Z,11.35
2019-05-17T06:39:07.085Z,11.80
2019-05-17T06:41:34.366Z,12.15
2019-05-17T06:44:02.890Z,11.20
2019-05-17T06:46:32.329Z,11.28
2019-05-17T06:48:59.203Z,12.58
2019-05-17T06:51:26.515Z,13.10
2019-05-17T06:53:53.818Z,10.55
2019-05-17T06:56:22.975Z,10.75
2019-05-17T06:58:50.078Z,9.55
2019-05-17T07:01:19.602Z,13.38
2019-05-17T07:03:46.308Z,10.23
2019-05-17T07:06:15.265Z,10.13
2019-05-17T07:08:42.562Z,8.08
2019-05-17T07:11:09.921Z,11.68
2019-05-17T07:13:39.423Z,8.10
2019-05-17T07:16:06.124Z,7.50
2019-05-17T07:18:33.413Z,8.00
2019-05-17T07:21:03.305Z,8.15
2019-05-17T07:23:30.256Z,9.30
2019-05-17T07:25:59.652Z,8.53
2019-05-17T07:28:26.583Z,9.78
2019-05-17T07:30:53.886Z,9.75
2019-05-17T07:33:21.192Z,8.63
2019-05-17T07:35:50.188Z,11.28
2019-05-17T07:38:19.765Z,8.50
2019-05-17T07:40:46.543Z,9.00
2019-05-17T07:43:14.968Z,9.23
2019-05-17T07:45:42.416Z,7.78
2019-05-17T07:48:09.975Z,17.67
2019-05-17T07:50:39.584Z,6.75
2019-05-17T07:53:06.264Z,6.22
2019-05-17T07:55:33.543Z,7.28
2019-05-17T07:58:00.854Z,5.62
2019-05-17T08:00:30.404Z,5.70
2019-05-17T08:02:59.761Z,7.40
2019-05-17T08:05:26.044Z,4.42
2019-05-17T08:07:53.326Z,6.10
2019-05-17T08:10:20.654Z,6.05
2019-05-17T08:12:49.802Z,6.97
2019-05-17T08:15:16.873Z,4.65
2019-05-17T08:17:44.189Z,4.53
2019-05-17T08:20:11.494Z,5.87
2019-05-17T08:22:39.869Z,4.45
2019-05-17T08:25:09.875Z,7.00
2019-05-17T08:27:36.659Z,4.67
2019-05-17T08:30:05.602Z,4.83
2019-05-17T08:32:32.887Z,6.08
2019-05-17T08:35:00.443Z,4.20
2019-05-17T08:37:30.263Z,4.37
2019-05-17T08:39:56.714Z,4.28
2019-05-17T08:42:24.006Z,4.30
2019-05-17T08:44:51.317Z,7.12
2019-05-17T08:47:20.938Z,4.12
2019-05-17T08:49:49.695Z,4.30
2019-05-17T08:52:16.518Z,4.40
2019-05-17T08:54:43.811Z,4.90
2019-05-17T08:57:11.130Z,4.17
2019-05-17T08:59:40.495Z,4.12
2019-05-17T09:02:07.345Z,3.80
2019-05-17T09:04:34.666Z,4.33
2019-05-17T09:07:03.236Z,3.60
2019-05-17T09:09:31.477Z,6.12
2019-05-17T09:11:59.603Z,4.60
2019-05-17T09:14:26.878Z,4.25
2019-05-17T09:16:54.203Z,3.83
2019-05-17T09:19:21.487Z,3.92
2019-05-17T09:21:50.367Z,3.25
2019-05-17T09:24:19.480Z,4.95
2019-05-17T09:26:49.178Z,4.00
2019-05-17T09:29:15.850Z,3.83
2019-05-17T09:31:43.137Z,4.55
2019-05-17T09:34:10.435Z,4.03
2019-05-17T09:36:37.755Z,4.17
2019-05-17T09:39:06.190Z,3.95
2019-05-17T09:41:33.514Z,3.42
2019-05-17T09:44:11.723Z,4.45
2019-05-17T09:46:30.257Z,4.80
2019-05-17T09:48:57.760Z,3.80
2019-05-17T09:51:25.049Z,4.42
2019-05-17T09:53:52.353Z,5.30
2019-05-17T09:56:20.621Z,4.60
2019-05-17T09:58:49.515Z,4.30
2019-05-17T10:01:16.921Z,3.87
2019-05-17T10:03:44.235Z,3.45
2019-05-17T10:06:11.518Z,3.33
2019-05-17T10:08:39.392Z,3.12
2019-05-17T10:11:09.688Z,3.22
2019-05-17T10:13:35.686Z,4.33
2019-05-17T10:16:02.984Z,3.22
2019-05-17T10:18:30.288Z,4.85
2019-05-17T10:20:59.667Z,3.77
2019-05-17T10:23:26.534Z,4.28
2019-05-17T10:25:53.851Z,3.58
2019-05-17T10:28:21.146Z,3.98
2019-05-17T10:30:51.943Z,5.75
2019-05-17T10:33:17.415Z,5.85
2019-05-17T10:35:44.725Z,5.67
2019-05-17T10:38:12.015Z,5.78
2019-05-17T10:40:40.899Z,3.15
2019-05-17T10:43:10.128Z,5.47
2019-05-17T10:45:39.798Z,4.17
2019-05-17T10:48:06.536Z,7.53
2019-05-17T10:50:33.849Z,3.77
2019-05-17T10:53:01.151Z,4.85
2019-05-17T10:55:30.226Z,4.67
2019-05-17T10:57:57.404Z,4.67
2019-05-17T11:00:24.711Z,5.62
2019-05-17T11:02:52.023Z,6.03
2019-05-17T11:05:20.094Z,4.65
2019-05-17T11:07:49.797Z,3.77
2019-05-17T11:10:16.561Z,4.58
2019-05-17T11:12:43.883Z,5.03
2019-05-17T11:15:12.106Z,4.35
2019-05-17T11:17:39.606Z,3.40
2019-05-17T11:20:07.785Z,4.42
2019-05-17T11:22:35.099Z,3.40
2019-05-17T11:25:02.731Z,9.78
2019-05-17T11:27:30.049Z,4.28
2019-05-17T11:29:57.363Z,4.17
2019-05-17T11:32:25.534Z,3.50
2019-05-17T11:34:52.759Z,3.63
2019-05-17T11:37:20.069Z,5.13
2019-05-17T11:39:47.363Z,3.13
2019-05-17T11:42:14.661Z,4.03
2019-05-17T11:44:41.963Z,4.10
2019-05-17T11:47:09.245Z,4.67
2019-05-17T11:49:36.557Z,6.60
2019-05-17T11:52:03.841Z,4.40
2019-05-17T11:54:31.134Z,3.00
2019-05-17T11:56:58.452Z,3.73
2019-05-17T11:59:25.762Z,6.93
2019-05-17T12:01:53.065Z,2.90
2019-05-17T12:04:20.372Z,4.57
2019-05-17T12:06:47.658Z,4.23
2019-05-17T12:09:14.949Z,5.27
2019-05-17T12:11:42.275Z,4.80
2019-05-17T12:14:09.574Z,3.80
2019-05-17T12:16:36.847Z,3.60
2019-05-17T12:19:04.170Z,4.20
2019-05-17T12:21:31.461Z,4.30
2019-05-17T12:23:58.750Z,3.17
2019-05-17T12:26:26.081Z,4.27
2019-05-17T12:28:53.375Z,3.70
2019-05-17T12:31:20.658Z,3.70
2019-05-17T12:33:47.975Z,5.43
2019-05-17T12:36:15.267Z,4.93
2019-05-17T12:38:42.550Z,6.03
2019-05-17T12:41:09.863Z,3.57
2019-05-17T12:43:37.158Z,4.33
2019-05-17T12:46:04.719Z,4.70
2019-05-17T12:48:32.030Z,5.27
2019-05-17T12:50:59.330Z,4.50
2019-05-17T12:53:26.618Z,4.47
2019-05-17T12:55:53.929Z,5.70
2019-05-17T12:58:21.213Z,5.13
2019-05-17T13:00:48.522Z,5.70
2019-05-17T13:03:15.808Z,5.60
2019-05-17T13:05:43.088Z,5.53
2019-05-17T13:08:10.405Z,6.60
2019-05-17T13:10:37.689Z,6.17
2019-05-17T13:13:04.973Z,5.87
2019-05-17T13:15:32.295Z,10.13
2019-05-17T13:17:59.602Z,7.23
2019-05-17T13:20:26.901Z,6.07
2019-05-17T13:22:54.192Z,4.83
2019-05-17T13:25:21.470Z,4.80
2019-05-17T13:27:48.773Z,4.37
2019-05-17T13:30:16.063Z,5.57
2019-05-17T13:32:43.341Z,5.23
2019-05-17T13:35:10.662Z,4.50
2019-05-17T13:37:37.980Z,5.50
2019-05-17T13:40:08.061Z,4.80
2019-05-17T13:42:35.393Z,5.87
2019-05-17T13:45:02.835Z,6.60
2019-05-17T13:47:30.137Z,5.47
2019-05-17T13:49:57.431Z,5.50
2019-05-17T13:52:24.731Z,4.67
2019-05-17T13:54:52.047Z,6.07
2019-05-17T13:57:19.353Z,4.90
2019-05-17T13:59:46.661Z,5.33
2019-05-17T14:02:13.973Z,4.80
2019-05-17T14:04:41.283Z,4.23
2019-05-17T14:07:08.575Z,4.33
2019-05-17T14:09:35.867Z,4.20
2019-05-17T14:12:03.179Z,6.53
2019-05-17T14:14:30.485Z,3.83
2019-05-17T14:16:57.785Z,3.53
2019-05-17T14:19:25.094Z,3.60
2019-05-17T14:21:52.415Z,4.17
2019-05-17T14:24:19.702Z,3.33
2019-05-17T14:26:46.990Z,3.63
2019-05-17T14:29:14.275Z,3.87
2019-05-17T14:31:41.590Z,3.40
2019-05-17T14:34:08.876Z,4.03
2019-05-17T14:36:36.170Z,3.60
2019-05-17T14:39:04.228Z,3.03
2019-05-17T14:41:31.557Z,4.13
2019-05-17T14:43:58.857Z,3.47
2019-05-17T14:46:26.146Z,3.57
2019-05-17T14:48:53.427Z,3.57
2019-05-17T14:51:20.768Z,4.57
2019-05-17T14:53:48.072Z,4.17
2019-05-17T14:56:15.350Z,3.87
2019-05-17T14:58:42.659Z,4.67
2019-05-17T15:01:09.951Z,4.50
2019-05-17T15:03:37.269Z,4.00
2019-05-17T15:06:04.556Z,3.80
2019-05-17T15:08:31.878Z,3.70
2019-05-17T15:10:59.184Z,3.90
2019-05-17T15:13:26.470Z,3.70
2019-05-17T15:15:53.789Z,4.07
2019-05-17T15:18:21.070Z,3.50
2019-05-17T15:20:48.374Z,4.77
2019-05-17T15:23:15.690Z,3.23
2019-05-17T15:25:42.985Z,4.40
2019-05-17T15:28:10.277Z,7.60
2019-05-17T15:30:37.594Z,6.33
2019-05-17T15:33:04.895Z,3.97
2019-05-17T15:35:32.213Z,4.50
2019-05-17T15:37:59.499Z,4.30
2019-05-17T15:40:26.781Z,3.97
2019-05-17T15:42:54.101Z,4.80
2019-05-17T15:45:21.443Z,3.80
2019-05-17T15:47:48.714Z,3.80
2019-05-17T15:50:16.033Z,3.80
2019-05-17T15:52:43.319Z,4.10
2019-05-17T15:55:10.628Z,5.53
2019-05-17T15:57:37.916Z,4.30
2019-05-17T16:00:06.149Z,4.33
2019-05-17T16:02:33.409Z,4.90
2019-05-17T16:05:00.694Z,3.40
2019-05-17T16:07:28.058Z,3.47
2019-05-17T16:09:55.370Z,5.93
2019-05-17T16:12:22.661Z,3.80
2019-05-17T16:14:49.960Z,2.80
2019-05-17T16:17:17.270Z,2.80
2019-05-17T16:19:44.560Z,2.10
2019-05-17T16:22:11.845Z,3.30
2019-05-17T16:24:39.161Z,2.77
2019-05-17T16:27:06.451Z,2.80
2019-05-17T16:29:33.733Z,3.77
2019-05-17T16:32:01.059Z,3.23
2019-05-17T16:34:28.347Z,2.93
2019-05-17T16:36:55.651Z,4.30
2019-05-17T16:39:22.952Z,3.73
2019-05-17T16:41:50.248Z,3.73
2019-05-17T16:44:17.534Z,2.90
2019-05-17T16:46:44.851Z,3.70
2019-05-17T16:49:12.144Z,4.00
2019-05-17T16:51:39.430Z,4.00
2019-05-17T16:54:06.760Z,3.80
2019-05-17T16:56:34.073Z,9.68
2019-05-17T16:59:01.398Z,7.90
2019-05-17T17:01:28.705Z,3.52
2019-05-17T17:03:55.996Z,5.25
2019-05-17T17:06:23.304Z,3.90
2019-05-17T17:08:50.603Z,3.35
2019-05-17T17:11:17.925Z,4.40
2019-05-17T17:13:45.219Z,3.70
2019-05-17T17:16:12.507Z,3.10
2019-05-17T17:18:39.810Z,3.05
2019-05-17T17:21:07.111Z,3.52
2019-05-17T17:23:34.419Z,2.98
2019-05-17T17:26:01.717Z,2.95
2019-05-17T17:28:28.994Z,3.52
2019-05-17T17:30:56.310Z,3.83
2019-05-17T17:33:23.606Z,2.90
2019-05-17T17:35:50.886Z,2.80
2019-05-17T17:38:18.199Z,2.80
2019-05-17T17:40:45.485Z,4.25
2019-05-17T17:43:13.382Z,7.28
2019-05-17T17:45:40.681Z,3.08
2019-05-17T17:48:07.974Z,3.00
2019-05-17T17:50:35.267Z,2.85
2019-05-17T17:53:02.608Z,3.30
2019-05-17T17:55:29.893Z,3.47
2019-05-17T17:57:57.181Z,3.35
2019-05-17T18:00:24.559Z,2.80
2019-05-17T18:02:51.906Z,2.77
2019-05-17T18:05:19.205Z,4.00
2019-05-17T18:07:46.522Z,3.77
2019-05-17T18:10:23.100Z,4.20
2019-05-17T18:12:50.401Z,3.27
2019-05-17T18:15:17.678Z,2.55
2019-05-17T18:17:45.002Z,5.12
2019-05-17T18:20:12.291Z,5.15
2019-05-17T18:22:39.611Z,3.55
2019-05-17T18:25:06.889Z,3.50
2019-05-17T18:27:34.188Z,4.08
2019-05-17T18:30:01.503Z,3.40
2019-05-17T18:32:28.814Z,4.30
2019-05-17T18:34:56.090Z,3.70
2019-05-17T18:37:23.403Z,3.22
2019-05-17T18:39:50.690Z,3.37
2019-05-17T18:42:17.978Z,4.05
2019-05-17T18:44:45.296Z,3.62
2019-05-17T18:47:12.586Z,4.25
2019-05-17T18:49:39.894Z,3.58
2019-05-17T18:52:07.178Z,5.22
2019-05-17T18:54:34.469Z,5.03
2019-05-17T18:57:01.790Z,4.72
2019-05-17T18:59:29.085Z,5.00
2019-05-17T19:01:56.405Z,4.22
2019-05-17T19:04:23.711Z,7.03
2019-05-17T19:06:51.000Z,3.80
2019-05-17T19:09:18.335Z,6.55
2019-05-17T19:11:45.623Z,3.87
2019-05-17T19:14:12.923Z,6.60
2019-05-17T19:16:40.222Z,4.70
2019-05-17T19:19:07.514Z,19.32
2019-05-17T19:21:34.832Z,7.15
2019-05-17T19:24:02.106Z,8.05
2019-05-17T19:26:29.421Z,5.70
2019-05-17T19:28:56.716Z,4.92
2019-05-17T19:31:24.002Z,4.60
2019-05-17T19:33:51.313Z,5.58
2019-05-17T19:36:18.615Z,5.22
2019-05-17T19:38:45.929Z,5.03
2019-05-17T19:41:13.251Z,4.40
2019-05-17T19:43:40.538Z,5.28
2019-05-17T19:46:07.825Z,5.30
2019-05-17T19:48:35.150Z,5.67
2019-05-17T19:51:02.443Z,5.47
2019-05-17T19:53:29.723Z,6.03
2019-05-17T19:55:57.038Z,5.58
2019-05-17T19:58:24.331Z,6.60
2019-05-17T20:00:51.656Z,5.10
2019-05-17T20:03:18.952Z,5.37
2019-05-17T20:05:46.266Z,5.30
2019-05-17T20:08:13.577Z,4.90
2019-05-17T20:10:40.932Z,4.78
2019-05-17T20:13:08.255Z,4.78
2019-05-17T20:15:35.541Z,5.60
2019-05-17T20:18:02.902Z,5.37
2019-05-17T20:20:30.185Z,5.45
2019-05-17T20:22:57.489Z,4.45
2019-05-17T20:25:24.780Z,5.80
2019-05-17T20:27:52.070Z,5.37
2019-05-17T20:30:19.400Z,6.10
2019-05-17T20:32:46.725Z,5.55
2019-05-17T20:35:14.002Z,5.30
2019-05-17T20:37:41.301Z,5.30
2019-05-17T20:40:08.695Z,6.10
2019-05-17T20:42:35.990Z,7.30
2019-05-17T20:45:04.659Z,5.62
2019-05-17T20:47:31.968Z,6.97
2019-05-17T20:49:59.264Z,5.62
2019-05-17T20:52:26.583Z,5.97
2019-05-17T20:54:53.869Z,6.50
2019-05-17T20:57:21.159Z,6.30
2019-05-17T20:59:48.470Z,6.20
2019-05-17T21:02:15.762Z,5.70
2019-05-17T21:04:43.054Z,5.70
2019-05-17T21:07:10.361Z,6.05
2019-05-17T21:09:37.679Z,5.42
2019-05-17T21:12:05.008Z,5.30
2019-05-17T21:14:32.335Z,4.97
2019-05-17T21:16:59.645Z,5.60
2019-05-17T21:19:26.935Z,6.80
2019-05-17T21:21:54.213Z,5.65
2019-05-17T21:24:21.538Z,5.67
2019-05-17T21:26:48.825Z,6.33
2019-05-17T21:29:16.110Z,7.87
2019-05-17T21:31:43.434Z,5.78
2019-05-17T21:34:10.714Z,8.60
2019-05-17T21:36:38.030Z,5.30
2019-05-17T21:39:05.676Z,5.67
2019-05-17T21:41:32.981Z,6.30
2019-05-17T21:44:00.273Z,6.05
2019-05-17T21:46:27.596Z,6.67
2019-05-17T21:48:54.878Z,6.35
2019-05-17T21:51:22.158Z,6.15
2019-05-17T21:53:49.475Z,8.28
2019-05-17T21:56:16.782Z,6.33
2019-05-17T21:58:44.068Z,6.55
2019-05-17T22:01:12.430Z,6.37
2019-05-17T22:03:39.722Z,6.42
2019-05-17T22:06:07.004Z,5.75
2019-05-17T22:08:34.327Z,6.53
2019-05-17T22:11:01.619Z,6.15
2019-05-17T22:13:28.912Z,6.65
2019-05-17T22:15:56.205Z,5.85
2019-05-17T22:18:23.521Z,5.90
2019-05-17T22:20:50.834Z,6.80
2019-05-17T22:23:18.120Z,5.90
2019-05-17T22:25:45.402Z,6.20
2019-05-17T22:28:12.711Z,6.75
2019-05-17T22:30:40.003Z,7.08
2019-05-17T22:33:07.286Z,6.90
2019-05-17T22:35:34.589Z,6.35
2019-05-17T22:38:01.886Z,7.17
2019-05-17T22:40:29.188Z,6.50
2019-05-17T22:42:56.467Z,6.87
2019-05-17T22:45:23.751Z,6.85
2019-05-17T22:47:51.066Z,6.20
2019-05-17T22:50:18.350Z,7.53
2019-05-17T22:52:45.734Z,8.10
2019-05-17T22:55:13.026Z,8.25
2019-05-17T22:57:40.349Z,9.80
2019-05-17T23:00:07.706Z,11.10
2019-05-17T23:02:34.982Z,12.55
2019-05-17T23:05:02.431Z,10.40
2019-05-17T23:07:29.751Z,10.82
2019-05-17T23:09:57.035Z,11.73
2019-05-17T23:12:24.435Z,10.75
2019-05-17T23:14:51.735Z,11.38
2019-05-17T23:17:19.036Z,11.05
2019-05-17T23:19:46.346Z,11.80
2019-05-17T23:22:13.649Z,11.03
2019-05-17T23:24:40.967Z,14.40
2019-05-17T23:27:08.264Z,13.03
2019-05-17T23:29:35.577Z,12.55
2019-05-17T23:32:02.878Z,11.97
2019-05-17T23:34:30.167Z,12.65
2019-05-17T23:36:57.504Z,13.30
2019-05-17T23:39:24.781Z,12.70
2019-05-17T23:41:52.102Z,14.00
2019-05-17T23:44:19.393Z,14.05
2019-05-17T23:46:46.685Z,12.28
2019-05-17T23:49:14.010Z,13.58
2019-05-17T23:51:41.309Z,12.80
2019-05-17T23:54:08.606Z,14.78
2019-05-17T23:56:35.939Z,12.73
2019-05-17T23:59:03.229Z,13.88
